createdAt,value
2022-09-22T00:03:39.514Z,5.72
2022-09-22T00:08:39.111Z,5.7
2022-09-22T00:13:38.143Z,5.68
2022-09-22T00:18:37.757Z,5.71
2022-09-22T00:23:37.419Z,5.76
2022-09-22T00:28:36.834Z,5.75
2022-09-22T00:33:37.530Z,5.72
2022-09-22T00:38:34.678Z,5.71
2022-09-22T00:43:34.434Z,5.76
2022-09-22T00:48:33.437Z,5.83
2022-09-22T00:53:33.470Z,5.89
2022-09-22T00:58:32.673Z,5.89
2022-09-22T00:59:53.865Z,5.89
2022-09-22T01:04:53.157Z,5.91
2022-09-22T01:09:54.429Z,5.92
2022-09-22T01:14:51.216Z,5.98
2022-09-22T01:19:51.058Z,6
2022-09-22T01:24:50.134Z,6.02
2022-09-22T01:34:48.185Z,6.04
2022-09-22T01:39:47.410Z,6.01
2022-09-22T01:44:47.937Z,6.03
2022-09-22T01:49:46.592Z,6
2022-09-22T01:54:46.086Z,6.04
2022-09-22T01:58:52.757Z,6.05
2022-09-22T02:03:52.833Z,6
2022-09-22T02:08:51.854Z,5.93
2022-09-22T02:13:52.536Z,5.83
2022-09-22T02:18:49.604Z,5.8
2022-09-22T02:23:49.499Z,5.78
2022-09-22T02:28:49.484Z,5.76
2022-09-22T02:38:48.534Z,5.69
2022-09-22T02:43:47.964Z,5.7
2022-09-22T02:48:47.809Z,5.73
2022-09-22T02:53:48.280Z,5.69
2022-09-22T02:58:45.527Z,5.65
2022-09-22T03:03:45.302Z,5.62
2022-09-22T03:08:45.455Z,5.64
2022-09-22T03:13:45.150Z,5.65
2022-09-22T03:18:43.303Z,5.63
2022-09-22T03:23:43.085Z,5.62
2022-09-22T03:28:42.968Z,5.58
2022-09-22T03:33:42.578Z,5.57
2022-09-22T03:38:41.725Z,5.59
2022-09-22T03:43:41.324Z,5.61
2022-09-22T03:48:44.897Z,5.59
2022-09-22T03:54:32.532Z,5.47
2022-09-22T03:58:41.280Z,5.38
2022-09-22T04:03:38.927Z,5.29
2022-09-22T04:08:37.398Z,5.19
2022-09-22T04:13:37.157Z,5.16
2022-09-22T04:18:36.906Z,5.08
2022-09-22T04:23:36.433Z,5.01
2022-09-22T04:28:35.323Z,4.98
2022-09-22T04:33:34.682Z,4.96
2022-09-22T04:38:34.271Z,4.96
2022-09-22T04:43:33.775Z,4.88
2022-09-22T04:48:34.626Z,4.8
2022-09-22T04:53:31.584Z,4.69
2022-09-22T04:58:31.509Z,4.58
2022-09-22T04:59:52.793Z,4.54
2022-09-22T05:04:52.372Z,4.4
2022-09-22T05:09:50.721Z,4.25
2022-09-22T05:14:50.543Z,4.23
2022-09-22T05:19:50.356Z,4.28
2022-09-22T05:24:49.967Z,4.36
2022-09-22T05:29:48.913Z,4.46
2022-09-22T05:34:48.904Z,4.58
2022-09-22T05:44:47.853Z,4.76
2022-09-22T05:49:46.589Z,4.84
2022-09-22T05:54:46.307Z,4.92
2022-09-22T05:59:06.154Z,5.01
2022-09-22T06:04:05.617Z,5.12
2022-09-22T06:09:06.541Z,5.24
2022-09-22T06:14:03.668Z,5.38
2022-09-22T06:19:03.283Z,5.55
2022-09-22T06:24:02.354Z,5.73
2022-09-22T06:29:01.790Z,5.97
2022-09-22T06:34:02.311Z,6.25
2022-09-22T06:39:00.014Z,6.55
2022-09-22T06:44:00.368Z,6.85
2022-09-22T06:48:59.586Z,7.2
2022-09-22T06:53:59.127Z,7.68
2022-09-22T06:58:16.420Z,8.16
2022-09-22T07:03:17.171Z,8.71
2022-09-22T07:08:16.500Z,9.34
2022-09-22T07:13:17.787Z,9.93
2022-09-22T07:18:15.364Z,10.69
2022-09-22T07:23:25.842Z,11.12
2022-09-22T07:28:15.546Z,11.6
2022-09-22T07:33:24.779Z,12.01
2022-09-22T07:38:25.250Z,12.28
2022-09-22T07:43:24.986Z,12.37
2022-09-22T07:48:25.209Z,12.67
2022-09-22T07:53:25.394Z,13.04
2022-09-22T07:58:24.906Z,13.11
2022-09-22T07:59:48.030Z,13.15
2022-09-22T08:04:45.935Z,13.15
2022-09-22T08:09:45.126Z,13.31
2022-09-22T08:14:44.513Z,13.64
2022-09-22T08:19:43.930Z,13.8
2022-09-22T08:24:42.578Z,14.19
2022-09-22T08:29:42.161Z,14.42
2022-09-22T08:34:42.340Z,14.53
2022-09-22T08:39:41.680Z,14.76
2022-09-22T08:49:40.555Z,14.9
2022-09-22T08:54:40.046Z,14.79
2022-09-22T08:58:45.718Z,14.99
2022-09-22T09:03:45.245Z,15.12
2022-09-22T09:08:44.831Z,15.23
2022-09-22T09:13:44.688Z,15.36
2022-09-22T09:18:43.768Z,15.41
2022-09-22T09:28:41.960Z,15.81
2022-09-22T09:33:41.598Z,16.03
2022-09-22T09:38:40.618Z,16.27
2022-09-22T09:43:40.098Z,16.44
2022-09-22T09:48:38.595Z,16.61
2022-09-22T09:53:40.949Z,16.96
2022-09-22T09:58:24.116Z,17
2022-09-22T10:03:23.823Z,16.95
2022-09-22T10:08:22.959Z,17.1
2022-09-22T10:13:22.729Z,17.43
2022-09-22T10:18:22.407Z,17.67
2022-09-22T10:23:21.883Z,17.83
2022-09-22T10:28:22.582Z,17.92
2022-09-22T10:33:19.718Z,18.03
2022-09-22T10:38:19.274Z,18.11
2022-09-22T10:43:18.565Z,18.1
2022-09-22T10:53:17.190Z,18.6
2022-09-22T10:59:38.955Z,18.84
2022-09-22T11:04:39.692Z,19.04
2022-09-22T11:09:36.803Z,19.08
2022-09-22T11:14:36.558Z,19.04
2022-09-22T11:19:35.611Z,19.24
2022-09-22T11:24:35.375Z,19.43
2022-09-22T11:29:33.693Z,19.42
2022-09-22T11:34:33.020Z,19.29
2022-09-22T11:39:33.145Z,19.18
2022-09-22T11:44:32.719Z,19.24
2022-09-22T11:49:31.801Z,19.56
2022-09-22T11:54:31.337Z,19.61
2022-09-22T11:58:46.118Z,19.54
2022-09-22T12:03:45.648Z,19.79
2022-09-22T12:08:46.248Z,19.36
2022-09-22T12:13:43.523Z,19.58
2022-09-22T12:18:43.511Z,19.81
2022-09-22T12:23:44.254Z,19.7
2022-09-22T12:28:43.777Z,20.09
2022-09-22T12:33:41.218Z,20.12
2022-09-22T12:38:40.935Z,19.64
2022-09-22T12:43:39.562Z,20.12
2022-09-22T12:48:39.464Z,20.39
2022-09-22T12:53:41.490Z,20.2
2022-09-22T12:58:25.839Z,20.5
2022-09-22T13:03:25.845Z,20.58
2022-09-22T13:08:25.134Z,20.56
2022-09-22T13:13:24.415Z,20.68
2022-09-22T13:18:23.714Z,20.37
2022-09-22T13:23:23.820Z,20.43
2022-09-22T13:28:22.821Z,20.62
2022-09-22T13:33:23.513Z,21.14
2022-09-22T13:38:20.726Z,21.37
2022-09-22T13:43:20.522Z,21.46
2022-09-22T13:48:19.096Z,21.26
2022-09-22T13:53:19.870Z,21.3
2022-09-22T13:58:04.392Z,21.02
2022-09-22T14:03:04.276Z,21.12
2022-09-22T14:08:12.690Z,21.19
2022-09-22T14:13:02.505Z,21.25
2022-09-22T14:18:01.205Z,20.89
2022-09-22T14:23:00.282Z,20.98
2022-09-22T14:28:00.459Z,21.18
2022-09-22T14:32:59.541Z,20.92
2022-09-22T14:38:00.330Z,20.88
2022-09-22T14:42:58.506Z,21.14
2022-09-22T14:47:57.721Z,20.74
2022-09-22T14:52:56.791Z,20.32
2022-09-22T14:57:42.186Z,20.37
2022-09-22T15:02:42.105Z,20.73
2022-09-22T15:07:41.437Z,20.53
2022-09-22T15:12:40.691Z,20.54
2022-09-22T15:17:39.585Z,20.88
2022-09-22T15:22:38.789Z,20.99
2022-09-22T15:27:37.833Z,21.27
2022-09-22T15:32:37.571Z,21.47
2022-09-22T15:37:35.792Z,21.38
2022-09-22T15:42:35.745Z,20.94
2022-09-22T16:24:51.124Z,20.46
2022-09-22T16:29:50.711Z,20.31
2022-09-22T16:34:50.227Z,20.25
2022-09-22T16:39:48.265Z,19.95
2022-09-22T16:44:47.851Z,19.67
2022-09-22T16:49:47.559Z,19.27
2022-09-22T16:54:47.097Z,18.77
2022-09-22T16:59:07.238Z,18.02
2022-09-22T17:04:07.651Z,17.31
2022-09-22T17:09:06.179Z,16.78
2022-09-22T17:14:08.920Z,16.35
2022-09-22T17:19:03.894Z,15.96
2022-09-22T17:24:03.522Z,15.49
2022-09-22T17:29:03.219Z,15
2022-09-22T17:34:02.853Z,14.62
2022-09-22T17:39:01.348Z,14.27
2022-09-22T17:44:01.164Z,13.91
2022-09-22T17:49:00.499Z,13.62
2022-09-22T17:53:59.818Z,13.37
2022-09-22T17:58:56.230Z,13.08
2022-09-22T18:03:53.768Z,12.76
2022-09-22T18:08:53.263Z,12.47
2022-09-22T18:13:53.137Z,12.23
2022-09-22T18:18:52.580Z,11.98
2022-09-22T18:23:50.954Z,11.75
2022-09-22T18:28:50.334Z,11.52
2022-09-22T18:33:50.409Z,11.31
2022-09-22T18:38:49.698Z,11.11
2022-09-22T18:43:47.517Z,10.94
2022-09-22T18:48:47.215Z,10.76
2022-09-22T18:53:46.212Z,10.58
2022-09-22T18:58:45.879Z,10.41
2022-09-22T19:00:07.847Z,10.36
2022-09-22T19:05:07.290Z,10.18
2022-09-22T19:10:06.877Z,10
2022-09-22T19:15:06.549Z,9.87
2022-09-22T19:20:05.593Z,9.72
2022-09-22T19:25:05.269Z,9.59
2022-09-22T19:30:04.805Z,9.46
2022-09-22T19:35:04.313Z,9.35
2022-09-22T19:40:04.950Z,9.18
2022-09-22T19:45:01.983Z,9.09
2022-09-22T19:50:01.996Z,9.01
2022-09-22T19:55:01.869Z,8.91
2022-09-22T19:59:22.577Z,8.81
2022-09-22T20:04:21.319Z,8.75
2022-09-22T20:09:20.359Z,8.66
2022-09-22T20:14:20.488Z,8.63
2022-09-22T20:19:22.125Z,8.6
2022-09-22T20:24:18.885Z,8.6
2022-09-22T20:29:18.698Z,8.54
2022-09-22T20:34:17.817Z,8.54
2022-09-22T20:39:17.397Z,8.53
2022-09-22T20:44:15.658Z,8.52
2022-09-22T20:49:15.697Z,8.53
2022-09-22T20:54:15.297Z,8.49
2022-09-22T20:59:01.739Z,8.49
2022-09-22T21:04:01.230Z,8.45
2022-09-22T21:09:00.744Z,8.45
2022-09-22T21:14:00.446Z,8.53
2022-09-22T21:18:59.405Z,8.66
2022-09-22T21:24:00.141Z,8.85
2022-09-22T21:28:57.207Z,9.01
2022-09-22T21:33:56.930Z,9.1
2022-09-22T21:38:55.992Z,9.18
2022-09-22T21:43:55.868Z,9.22
2022-09-22T21:48:53.907Z,9.29
2022-09-22T21:53:53.799Z,9.35
2022-09-22T21:58:53.499Z,9.33
2022-09-22T22:00:16.677Z,9.32
2022-09-22T22:05:24.299Z,9.32
2022-09-22T22:10:23.712Z,9.27
2022-09-22T22:15:23.517Z,9.21
2022-09-22T22:20:21.333Z,9.08
2022-09-22T22:25:21.893Z,9.09
2022-09-22T22:30:21.597Z,9.05
2022-09-22T22:35:21.107Z,8.89
2022-09-22T22:40:21.029Z,8.76
2022-09-22T22:45:20.665Z,8.62
2022-09-22T22:50:21.821Z,8.49
2022-09-22T22:55:08.347Z,8.43
2022-09-22T22:59:28.515Z,8.31
2022-09-22T23:04:27.562Z,8.31
2022-09-22T23:09:28.585Z,8.24
2022-09-22T23:14:34.159Z,8.1
2022-09-22T23:19:25.446Z,7.99
2022-09-22T23:24:26.713Z,7.91
2022-09-22T23:29:24.025Z,7.82
2022-09-22T23:34:24.447Z,7.79
2022-09-22T23:39:23.562Z,7.75
2022-09-22T23:44:23.075Z,7.78
2022-09-22T23:49:22.395Z,7.84
2022-09-22T23:54:22.786Z,8.01
2022-09-22T23:58:35.838Z,8.2
